TimeMST,TemperatureF,Dew PointF,Humidity,Sea Level PressureIn,VisibilityMPH,Wind Direction,Wind SpeedMPH,Gust SpeedMPH,PrecipitationIn,Events,Conditions,WindDirDegrees,DateUTC
12:57 AM,82.0,73.0,74,29.82,10.0,SE,6.9,-,N/A,,Clear,130,2013-09-11 07:57:00
1:57 AM,81.0,73.0,77,29.81,10.0,SE,6.9,-,N/A,,Clear,130,2013-09-11 08:57:00
2:57 AM,81.0,72.0,74,29.81,10.0,SE,6.9,-,N/A,,Clear,140,2013-09-11 09:57:00
3:57 AM,81.0,72.0,74,29.82,10.0,East,5.8,-,N/A,,Clear,100,2013-09-11 10:57:00
4:57 AM,81.0,71.1,72,29.83,10.0,ENE,6.9,-,N/A,,Clear,70,2013-09-11 11:57:00
5:57 AM,79.0,68.0,69,29.83,10.0,ENE,4.6,-,N/A,,Partly Cloudy,60,2013-09-11 12:57:00
6:57 AM,79.0,69.1,72,29.86,10.0,ENE,4.6,-,N/A,,Partly Cloudy,60,2013-09-11 13:57:00
7:57 AM,82.0,66.9,60,29.87,10.0,East,8.1,-,N/A,,Partly Cloudy,80,2013-09-11 14:57:00
8:57 AM,84.9,66.0,53,29.88,10.0,ESE,5.8,-,N/A,,Partly Cloudy,110,2013-09-11 15:57:00
9:57 AM,87.1,71.1,59,29.89,10.0,SSE,6.9,-,N/A,,Partly Cloudy,150,2013-09-11 16:57:00
10:57 AM,89.1,68.0,50,29.89,10.0,Variable,5.8,-,N/A,,Partly Cloudy,0,2013-09-11 17:57:00
11:57 AM,91.0,66.9,45,29.88,10.0,SSW,8.1,-,N/A,,Partly Cloudy,200,2013-09-11 18:57:00
12:57 PM,93.0,64.9,39,29.86,10.0,South,9.2,-,N/A,,Partly Cloudy,190,2013-09-11 19:57:00
1:57 PM,93.9,66.9,41,29.83,10.0,South,5.8,-,N/A,,Partly Cloudy,190,2013-09-11 20:57:00
2:57 PM,97.0,62.1,31,29.81,10.0,SSE,6.9,-,N/A,,Partly Cloudy,160,2013-09-11 21:57:00
3:57 PM,97.0,57.0,26,29.80,10.0,South,6.9,-,N/A,,Partly Cloudy,170,2013-09-11 22:57:00
4:57 PM,97.0,55.0,24,29.78,10.0,SSE,6.9,-,N/A,,Partly Cloudy,160,2013-09-11 23:57:00
5:57 PM,97.0,53.1,23,29.78,10.0,South,5.8,-,N/A,,Partly Cloudy,180,2013-09-12 00:57:00
6:57 PM,95.0,53.1,24,29.78,10.0,South,4.6,-,N/A,,Partly Cloudy,170,2013-09-12 01:57:00
7:57 PM,91.9,55.0,29,29.78,10.0,SSW,5.8,-,N/A,,Partly Cloudy,200,2013-09-12 02:57:00
8:57 PM,89.1,62.1,40,29.79,10.0,South,6.9,-,N/A,,Clear,170,2013-09-12 03:57:00
9:57 PM,87.1,64.0,46,29.80,10.0,SSW,5.8,-,N/A,,Clear,200,2013-09-12 04:57:00
10:57 PM,86.0,64.9,49,29.81,10.0,Calm,Calm,-,N/A,,Clear,0,2013-09-12 05:57:00
11:57 PM,84.0,66.0,55,29.81,10.0,Calm,Calm,-,N/A,,Clear,0,2013-09-12 06:57:00